METAR AND TAF INFORMATION

METAR FOR OIII
ADDS - METARS form results

(0816 UTC 24 July 2021)
Data provider http://aviationweather.gov/metar/data/
 
METAR text: OIII 240800Z 15006KT CAVOK 37/02 Q1009 A2980 NOSIG
Conditions at: OIII (TEHRAN/MEHRABAD , IR) observed 0800 UTC 24 July 2021
Temperature: 37.0°C (99°F)
Dewpoint: 2.0°C (36°F) [RH = 11%]
Pressure (altimeter): 29.79 inches Hg (1009.0 mb)
Winds: from the SSE (150 degrees) at 7 MPH (6 knots; 3.1 m/s)
Visibility: 6 or more miles (10+ km)
Ceiling: ceiling and visibility are OK
Clouds: unknown
Weather: no significant weather observed at this time

METAR text: OIII 240730Z 15010KT CAVOK 36/04 Q1009 A2980
Conditions at: OIII (TEHRAN/MEHRABAD , IR) observed 0730 UTC 24 July 2021
Temperature: 36.0°C (97°F)
Dewpoint: 4.0°C (39°F) [RH = 14%]
Pressure (altimeter): 29.79 inches Hg (1009.0 mb)
Winds: from the SSE (150 degrees) at 12 MPH (10 knots; 5.1 m/s)
Visibility: 6 or more miles (10+ km)
Ceiling: ceiling and visibility are OK
Clouds: unknown
Weather: no significant weather observed at this time

Forecast for: OIII (TEHRAN/MEHRABAD , IR)
Text: TAF OIII 240530Z 2406/2512 14012KT 8000 NSC
Forecast period: 0600 UTC 24 July 2021 to 1200 UTC 25 July 2021
Forecast type: FROM: standard forecast or significant change
Winds: from the SE (140 degrees) at 14 MPH (12 knots; 6.2 m/s)
Visibility: 5 miles (8 km)
Ceiling: unknown
Clouds: missing
Weather: no significant weather forecast for this period
Text: TEMPO 2415/2424 14022KT
Forecast period: 1500 UTC 24 July 2021 to 0000 UTC 25 July 2021
Forecast type: TEMPORARY: The following changes expected for less than half the time period
Winds: from the SE (140 degrees) at 25 MPH (22 knots; 11.3 m/s)
Visibility: missing
Ceiling: unknown
Clouds: missing
Weather: no significant weather forecast for this period

 

AIRPORT MAP

 

RUNWAY INFORMATION

Runway 09 Runway length 1554 ft Runway width 130 ft
Runway elevation 0 ft Runway displaced threshold 0 ft Runway heading 89
Runway 27 Runway length 1554 ft Runway width 130 ft
Runway elevation 0 ft Runway displaced threshold 0 ft Runway heading 269
Runway 11L Runway length 13098 ft Runway width 148 ft
Runway elevation 3962 ft Runway displaced threshold 0 ft Runway heading 109
Runway 29R Runway length 13098 ft Runway width 148 ft
Runway elevation 3797 ft Runway displaced threshold 0 ft Runway heading 289
Runway 11R Runway length 13248 ft Runway width 197 ft
Runway elevation 3949 ft Runway displaced threshold 3075 ft Runway heading 109
Runway 29L Runway length 13248 ft Runway width 197 ft
Runway elevation 3794 ft Runway displaced threshold 0 ft Runway heading 289

 

AIRPORT FREQUENCIES

Type APP Name APP Frequency 119.7 MHZ
Type ATIS Name ATIS Frequency 128 MHZ
Type GND Name GND Frequency 121.7 MHZ
Type TWR Name TWR Frequency 118.1 MHZ

 

AIRPORT NEAR NAVIGATION AIDS

Type TACAN Name Tehran Frequency 113300 KHZ
Type VOR-DME Name Tehran Frequency 115300 KHZ